Townsend, MT

1:06 PM MST on December 02, 2016 (GMT -0700)
Townsend, Montana | | Change Station

Elev 3944 ft 46.26 °N, 111.45 °W | Updated 6 minutes ago

Overcast
Overcast
35.5 °F
Feels Like 30 °F
N
6.0
Wind Variable Wind from WSW
Gusts 10.0 mph

Today
High -- | Low -- °F
--% Chance of Precip.
Yesterday
High -- | Low -- °F
Precip. -- in
Pressure 30.29 in
Visibility 10.0 miles
Clouds Overcast 5000 ft
Windchill 30 °F
Dew Point 21 °F
Humidity 56%
Rainfall 0.00 in
Snow Depth Not available.
7:50 AM 4:40 PM
Waxing Crescent, 10% visible
METAR KHLN 021953Z 26015G21KT 10SM OVC050 02/M10 A3016 RMK AO2 SLP257 T00171100
Pressure 30.29 in
Visibility 10.0 miles
Clouds Overcast 5000 ft
Windchill 30 °F
Dew Point 21 °F
Humidity 56%
Rainfall 0.00 in
Snow Depth Not available.
7:50 AM 4:40 PM
Waxing Crescent, 10% visible
METAR KHLN 021953Z 26015G21KT 10SM OVC050 02/M10 A3016 RMK AO2 SLP257 T00171100

10-Day Weather Forecast

Almanac

Astronomy

Dec. 02, 2016 Rise Set
Actual Time
Civil Twilight
Nautical Twilight
Astronomical Twilight
Moon
Length of Visible Light
Length of Day
Tomorrow will be .
, % of the Moon is Illuminated

Today's Extremes

State Highs State Lows

Community

WunderPhotos

Upload Photos

1,955,348 photos uploaded!

WunderBlog® & News

Nearby

Air Quality

  Air Quality AQ Index Pollutant
Not available.

Snow Depth

Station Depth Elevation

Earthquake Activity

City Distance Mag. Time & Date
Minimum magnitude displayed is 2.5.

Coastal Water Temperatures

Place Temperature

Stations

Nearby Weather Stations

Station Location Temp. Windchill Dew Point Humidity Wind Precip. Elev Updated Type
                   

Watches & Warnings

There are currently no watches in effect.